createdAt,value
2019-02-17T09:16:15.379Z,11.92
2019-02-17T09:18:45.770Z,12.00
2019-02-17T09:21:35.852Z,11.98
2019-02-17T09:24:16.446Z,11.85
2019-02-17T09:27:25.093Z,12.07
2019-02-17T09:30:09.492Z,12.64
2019-02-17T09:35:45.103Z,11.96
2019-02-17T09:41:39.525Z,12.22
2019-02-17T09:47:39.750Z,11.97
2019-02-17T09:50:48.335Z,12.52
2019-02-17T09:53:29.065Z,11.83
2019-02-17T09:59:38.608Z,12.90
2019-02-17T10:02:28.109Z,13.18
2019-02-17T10:05:09.665Z,13.49
2019-02-17T10:08:18.952Z,14.11
2019-02-17T10:10:59.291Z,13.94
2019-02-17T10:13:30.070Z,15.01
2019-02-17T10:16:00.637Z,14.67
2019-02-17T10:18:30.961Z,15.01
2019-02-17T10:21:01.653Z,15.06
2019-02-17T10:23:32.140Z,14.82
2019-02-17T10:26:02.919Z,14.82
2019-02-17T10:28:42.101Z,15.24
2019-02-17T10:31:06.007Z,15.29
2019-02-17T10:33:36.724Z,15.96
2019-02-17T10:36:07.141Z,15.88
2019-02-17T10:38:37.617Z,15.54
2019-02-17T10:41:07.968Z,15.24
2019-02-17T10:43:38.515Z,15.16
2019-02-17T10:46:09.025Z,15.63
2019-02-17T10:48:39.722Z,15.74
2019-02-17T10:51:10.182Z,14.98
2019-02-17T10:53:40.629Z,16.08
2019-02-17T10:56:11.354Z,15.09
2019-02-17T10:58:41.988Z,15.58
2019-02-17T11:01:12.410Z,15.45
2019-02-17T11:04:01.103Z,15.50
2019-02-17T11:06:31.580Z,16.34
2019-02-17T11:09:02.035Z,15.56
2019-02-17T11:11:32.795Z,15.70
2019-02-17T11:14:03.599Z,15.32
2019-02-17T11:16:34.376Z,16.21
2019-02-17T11:19:04.909Z,16.69
2019-02-17T11:21:35.707Z,16.45
2019-02-17T11:24:06.165Z,16.70
2019-02-17T11:26:36.599Z,16.65
2019-02-17T11:29:07.573Z,16.12
2019-02-17T11:31:38.011Z,15.99
2019-02-17T11:34:08.604Z,16.50
2019-02-17T11:36:39.153Z,16.43
2019-02-17T11:39:28.049Z,16.31
2019-02-17T11:41:58.534Z,16.27
2019-02-17T11:44:29.035Z,16.31
2019-02-17T11:46:59.544Z,16.99
2019-02-17T11:49:30.056Z,17.43
2019-02-17T11:52:00.802Z,16.98
2019-02-17T11:54:31.386Z,17.14
2019-02-17T11:57:01.918Z,16.79
2019-02-17T11:59:32.542Z,16.62
2019-02-17T12:02:03.425Z,17.62
2019-02-17T12:04:34.110Z,17.22
2019-02-17T12:07:04.583Z,18.12
2019-02-17T12:09:35.601Z,17.22
2019-02-17T12:12:06.415Z,18.04
2019-02-17T12:14:37.193Z,17.89
2019-02-17T12:17:08.369Z,17.84
2019-02-17T12:19:39.230Z,18.04
2019-02-17T12:22:25.175Z,17.90
2019-02-17T12:25:08.775Z,17.96
2019-02-17T12:28:07.302Z,18.20
2019-02-17T12:30:40.142Z,18.33
2019-02-17T12:33:18.436Z,17.71
2019-02-17T12:35:43.601Z,17.85
2019-02-17T12:38:14.143Z,18.61
2019-02-17T12:40:44.987Z,18.66
2019-02-17T12:43:15.271Z,18.24
2019-02-17T12:45:46.333Z,18.05
2019-02-17T12:48:16.871Z,17.45
2019-02-17T12:50:47.664Z,17.84
2019-02-17T12:53:20.947Z,18.03
2019-02-17T12:55:51.502Z,18.11
2019-02-17T12:58:29.695Z,18.32
2019-02-17T13:00:54.512Z,18.15
2019-02-17T13:03:28.480Z,17.81
2019-02-17T13:05:57.606Z,17.41
2019-02-17T13:08:28.261Z,18.13
2019-02-17T13:10:59.194Z,17.92
2019-02-17T13:13:30.323Z,18.49
2019-02-17T13:16:01.207Z,17.79
2019-02-17T13:18:31.777Z,17.92
2019-02-17T13:21:02.342Z,17.89
2019-02-17T13:23:32.980Z,18.24
2019-02-17T13:26:03.795Z,18.61
2019-02-17T13:28:34.321Z,18.39
2019-02-17T13:31:04.954Z,18.62
2019-02-17T13:33:39.238Z,18.98
2019-02-17T13:36:08.090Z,19.36
2019-02-17T13:38:38.697Z,19.11
2019-02-17T13:41:09.113Z,19.27
2019-02-17T13:43:39.543Z,18.89
2019-02-17T13:46:10.039Z,18.65
2019-02-17T13:48:40.566Z,18.85
2019-02-17T13:51:10.910Z,18.55
2019-02-17T13:53:41.458Z,18.78
2019-02-17T13:56:11.907Z,18.52
2019-02-17T13:58:42.197Z,18.59
2019-02-17T14:01:12.681Z,18.65
2019-02-17T14:03:48.808Z,18.80
2019-02-17T14:06:15.261Z,18.52
2019-02-17T14:08:45.742Z,18.76
2019-02-17T14:11:16.348Z,18.77
2019-02-17T14:13:46.865Z,18.75
2019-02-17T14:16:17.380Z,18.69
2019-02-17T14:18:47.751Z,18.90
2019-02-17T14:21:18.392Z,18.52
2019-02-17T14:23:48.733Z,18.65
2019-02-17T14:26:19.429Z,18.68
2019-02-17T14:28:49.753Z,18.63
2019-02-17T14:31:20.257Z,18.69
2019-02-17T14:33:58.397Z,18.73
2019-02-17T14:36:22.860Z,18.79
2019-02-17T14:38:53.642Z,18.54
2019-02-17T14:41:24.109Z,18.83
2019-02-17T14:43:54.803Z,18.73
2019-02-17T14:46:25.184Z,18.73
2019-02-17T14:48:55.855Z,18.53
2019-02-17T14:51:26.298Z,18.30
2019-02-17T14:53:57.220Z,18.19
2019-02-17T14:56:29.394Z,18.39
2019-02-17T14:58:59.903Z,18.21
2019-02-17T15:01:30.190Z,18.18
2019-02-17T15:04:08.371Z,18.27
2019-02-17T15:06:33.036Z,18.33
2019-02-17T15:09:05.210Z,18.11
2019-02-17T15:11:35.575Z,18.19
2019-02-17T15:14:06.062Z,17.96
2019-02-17T15:16:36.512Z,18.01
2019-02-17T15:19:07.074Z,17.78
2019-02-17T15:21:37.613Z,17.83
2019-02-17T15:24:08.125Z,17.76
2019-02-17T15:26:38.555Z,17.67
2019-02-17T15:29:09.174Z,17.63
2019-02-17T15:31:39.427Z,17.61
2019-02-17T15:34:18.390Z,17.63
2019-02-17T15:36:42.184Z,17.54
2019-02-17T15:39:12.530Z,17.49
2019-02-17T15:41:42.995Z,17.40
2019-02-17T15:44:13.384Z,17.46
2019-02-17T15:46:43.870Z,17.45
2019-02-17T15:49:14.292Z,17.50
2019-02-17T15:51:44.666Z,17.37
2019-02-17T15:54:15.198Z,17.40
2019-02-17T15:56:45.787Z,17.29
2019-02-17T15:59:16.251Z,17.20
2019-02-17T16:01:46.664Z,17.19
2019-02-17T16:04:16.936Z,17.14
2019-02-17T16:06:47.314Z,17.11
2019-02-17T16:09:18.036Z,17.11
2019-02-17T16:11:48.308Z,16.99
2019-02-17T16:14:18.818Z,16.98
2019-02-17T16:16:49.584Z,17.01
2019-02-17T16:19:20.086Z,16.83
2019-02-17T16:21:50.556Z,16.75
2019-02-17T16:24:20.891Z,16.69
2019-02-17T16:26:51.415Z,16.72
2019-02-17T16:29:21.719Z,16.61
2019-02-17T16:31:52.609Z,16.52
2019-02-17T16:34:22.976Z,16.46
2019-02-17T16:36:53.507Z,16.33
2019-02-17T16:39:24.044Z,16.30
2019-02-17T16:41:54.460Z,16.32
2019-02-17T16:44:24.816Z,16.27
2019-02-17T16:46:55.195Z,16.13
2019-02-17T16:49:25.645Z,16.06
2019-02-17T16:51:56.020Z,15.96
2019-02-17T16:54:26.357Z,15.90
2019-02-17T16:56:56.808Z,15.84
2019-02-17T16:59:27.196Z,15.75
2019-02-17T17:01:57.826Z,15.82
2019-02-17T17:04:28.223Z,15.74
2019-02-17T17:07:00.982Z,15.75
2019-02-17T17:09:31.096Z,15.70
2019-02-17T17:12:01.567Z,15.67
2019-02-17T17:14:31.883Z,15.52
2019-02-17T17:17:02.600Z,15.45
2019-02-17T17:19:33.074Z,15.41
2019-02-17T17:22:03.986Z,15.34
2019-02-17T17:24:34.447Z,15.28
2019-02-17T17:27:04.900Z,15.29
2019-02-17T17:29:35.309Z,15.17
2019-02-17T17:32:05.928Z,15.16
2019-02-17T17:34:36.308Z,15.08
2019-02-17T17:37:06.659Z,15.04
2019-02-17T17:39:37.180Z,14.90
2019-02-17T17:42:08.354Z,14.84
2019-02-17T17:44:39.246Z,14.84
2019-02-17T17:47:11.356Z,14.77
2019-02-17T17:49:43.205Z,14.78
2019-02-17T17:52:13.885Z,14.69
2019-02-17T17:54:44.421Z,14.63
2019-02-17T17:57:15.324Z,14.69
2019-02-17T17:59:45.704Z,14.62
2019-02-17T18:02:16.487Z,14.56
2019-02-17T18:04:50.173Z,14.45
2019-02-17T18:07:20.746Z,14.43
2019-02-17T18:09:51.433Z,14.37
2019-02-17T18:12:22.065Z,14.36
2019-02-17T18:14:52.472Z,14.33
2019-02-17T18:17:23.093Z,14.28
2019-02-17T18:19:53.693Z,14.19
2019-02-17T18:22:24.164Z,14.18
2019-02-17T18:24:54.581Z,14.15
2019-02-17T18:27:25.158Z,14.05
2019-02-17T18:29:55.498Z,13.98
2019-02-17T18:32:25.853Z,13.92
2019-02-17T18:34:56.302Z,13.88
2019-02-17T18:37:26.757Z,13.86
2019-02-17T18:39:57.843Z,13.85
2019-02-17T18:42:28.870Z,13.76
2019-02-17T18:44:59.936Z,13.79
2019-02-17T18:47:33.969Z,13.72
2019-02-17T18:50:05.520Z,13.65
2019-02-17T18:52:36.037Z,13.56
2019-02-17T18:55:07.034Z,13.52
2019-02-17T18:57:37.429Z,13.44
2019-02-17T19:00:10.813Z,13.41
2019-02-17T19:02:41.283Z,13.34
2019-02-17T19:05:12.322Z,13.32
2019-02-17T19:07:43.059Z,13.25
2019-02-17T19:10:14.194Z,13.23
2019-02-17T19:12:44.707Z,13.20
2019-02-17T19:15:15.426Z,13.14
2019-02-17T19:17:46.398Z,13.11
2019-02-17T19:20:19.282Z,13.02
2019-02-17T19:22:50.010Z,13.02
2019-02-17T19:25:20.502Z,12.91
2019-02-17T19:27:50.992Z,12.90
2019-02-17T19:30:27.126Z,12.85
2019-02-17T19:32:57.526Z,12.80
2019-02-17T19:35:28.107Z,12.70
2019-02-17T19:37:58.578Z,12.70
2019-02-17T19:40:28.987Z,12.61
2019-02-17T19:43:03.587Z,12.60
2019-02-17T19:45:34.242Z,12.51
2019-02-17T19:48:04.689Z,12.53
2019-02-17T19:50:38.628Z,12.36
2019-02-17T19:53:10.164Z,12.29
2019-02-17T19:55:40.961Z,12.33
2019-02-17T19:58:11.516Z,12.27
2019-02-17T20:00:41.979Z,12.35
2019-02-17T20:03:40.389Z,12.21
2019-02-17T20:06:12.211Z,12.22
2019-02-17T20:08:45.789Z,12.15
2019-02-17T20:11:16.077Z,12.06
2019-02-17T20:13:46.585Z,12.04
2019-02-17T20:16:17.379Z,12.02
2019-02-17T20:18:48.141Z,12.00
2019-02-17T20:21:18.969Z,11.91
2019-02-17T20:23:49.476Z,11.88
2019-02-17T20:26:20.202Z,11.84
2019-02-17T20:28:51.025Z,11.73
2019-02-17T20:31:21.418Z,11.71
2019-02-17T20:33:52.084Z,11.76
2019-02-17T20:36:23.291Z,11.71
2019-02-17T20:38:53.848Z,11.67
2019-02-17T20:41:24.546Z,11.62
2019-02-17T20:43:55.984Z,11.61
2019-02-17T20:46:26.702Z,11.65
2019-02-17T20:48:57.328Z,11.66
2019-02-17T20:51:28.366Z,11.63
2019-02-17T20:53:59.556Z,11.52
2019-02-17T20:56:30.536Z,11.44
2019-02-17T20:59:02.164Z,11.40
2019-02-17T21:01:33.510Z,11.35
2019-02-17T21:04:04.343Z,11.35
2019-02-17T21:06:35.283Z,11.40
2019-02-17T21:09:08.515Z,11.26
2019-02-17T21:11:43.756Z,11.26
2019-02-17T21:14:15.300Z,11.34
2019-02-17T21:16:46.094Z,11.30
2019-02-17T21:19:17.225Z,11.16
2019-02-17T21:21:48.191Z,11.23
2019-02-17T21:24:19.689Z,11.11
2019-02-17T21:26:50.206Z,11.10
2019-02-17T21:29:20.851Z,11.04
2019-02-17T21:31:51.253Z,11.02
2019-02-17T21:34:21.803Z,10.93
2019-02-17T21:36:52.231Z,10.94
2019-02-17T21:39:22.590Z,10.86
2019-02-17T21:41:53.270Z,10.84
2019-02-17T21:44:23.924Z,10.77
2019-02-17T21:46:55.028Z,10.80
2019-02-17T21:49:25.445Z,10.84
2019-02-17T21:51:55.901Z,10.81
2019-02-17T21:54:26.592Z,10.80
2019-02-17T21:56:57.026Z,10.84
2019-02-17T21:59:27.660Z,10.80
2019-02-17T22:01:58.069Z,10.80
2019-02-17T22:04:28.382Z,10.77
2019-02-17T22:06:58.754Z,10.67
2019-02-17T22:09:29.375Z,10.60
2019-02-17T22:12:00.312Z,10.57
2019-02-17T22:14:30.723Z,10.63
2019-02-17T22:17:01.553Z,10.61
2019-02-17T22:19:32.291Z,10.73
2019-02-17T22:22:02.757Z,10.68
2019-02-17T22:24:33.491Z,10.67
2019-02-17T22:27:03.866Z,10.72
2019-02-17T22:29:34.314Z,10.69
2019-02-17T22:32:05.041Z,10.74
2019-02-17T22:34:35.472Z,10.70
2019-02-17T22:37:05.923Z,10.76
2019-02-17T22:39:36.577Z,10.67
2019-02-17T22:42:07.012Z,10.64
2019-02-17T22:44:37.531Z,10.74
2019-02-17T22:47:08.137Z,10.69
2019-02-17T22:49:38.492Z,10.76
2019-02-17T22:52:09.048Z,10.76
2019-02-17T22:54:39.455Z,10.72
2019-02-17T22:57:09.890Z,10.85
2019-02-17T22:59:40.546Z,10.82
2019-02-17T23:02:12.031Z,10.81
2019-02-17T23:04:42.984Z,10.78
2019-02-17T23:07:13.475Z,10.68
2019-02-17T23:09:44.098Z,10.71
2019-02-17T23:12:14.570Z,10.70
2019-02-17T23:14:44.974Z,10.69
2019-02-17T23:17:15.392Z,10.64
2019-02-17T23:19:45.821Z,10.69
2019-02-17T23:22:16.283Z,10.64
2019-02-17T23:24:46.834Z,10.53
2019-02-17T23:27:17.194Z,10.53
2019-02-17T23:29:47.672Z,10.63
2019-02-17T23:32:18.100Z,10.64
2019-02-17T23:34:48.442Z,10.58
2019-02-17T23:37:18.891Z,10.49
2019-02-17T23:39:49.735Z,10.42
2019-02-17T23:42:20.169Z,10.45
2019-02-17T23:44:51.086Z,10.44
2019-02-17T23:47:21.537Z,10.47
2019-02-17T23:49:51.890Z,10.42
2019-02-17T23:52:22.238Z,10.42
2019-02-17T23:54:52.671Z,10.37
2019-02-17T23:57:23.047Z,10.30
2019-02-17T23:59:53.623Z,10.31
